sensor_id;sensor_type;location;lat;lon;timestamp;temperature;humidity
75357;HTU21D;63946;51.986;5.930;2024-02-14T00:02:05;8.78;78.37
75357;HTU21D;63946;51.986;5.930;2024-02-14T00:04:34;8.78;78.47
75357;HTU21D;63946;51.986;5.930;2024-02-14T00:07:04;8.81;78.56
75357;HTU21D;63946;51.986;5.930;2024-02-14T00:09:33;8.83;78.52
75357;HTU21D;63946;51.986;5.930;2024-02-14T00:12:02;8.86;78.52
75357;HTU21D;63946;51.986;5.930;2024-02-14T00:14:31;8.86;78.58
75357;HTU21D;63946;51.986;5.930;2024-02-14T00:17:00;8.87;78.59
75357;HTU21D;63946;51.986;5.930;2024-02-14T00:19:29;8.88;78.61
75357;HTU21D;63946;51.986;5.930;2024-02-14T00:21:58;8.90;78.66
75357;HTU21D;63946;51.986;5.930;2024-02-14T00:24:27;8.89;78.75
75357;HTU21D;63946;51.986;5.930;2024-02-14T00:26:59;8.89;78.85
75357;HTU21D;63946;51.986;5.930;2024-02-14T00:29:29;8.89;78.85
75357;HTU21D;63946;51.986;5.930;2024-02-14T00:32:00;8.92;78.94
75357;HTU21D;63946;51.986;5.930;2024-02-14T00:34:29;8.92;78.92
75357;HTU21D;63946;51.986;5.930;2024-02-14T00:37:00;8.91;79.04
75357;HTU21D;63946;51.986;5.930;2024-02-14T00:39:29;8.93;79.15
75357;HTU21D;63946;51.986;5.930;2024-02-14T00:41:58;8.94;79.18
75357;HTU21D;63946;51.986;5.930;2024-02-14T00:44:26;8.95;79.27
75357;HTU21D;63946;51.986;5.930;2024-02-14T00:46:57;8.95;79.33
75357;HTU21D;63946;51.986;5.930;2024-02-14T00:49:28;8.94;79.48
75357;HTU21D;63946;51.986;5.930;2024-02-14T00:51:57;8.95;79.59
75357;HTU21D;63946;51.986;5.930;2024-02-14T00:54:26;8.97;79.61
75357;HTU21D;63946;51.986;5.930;2024-02-14T00:56:55;9.02;79.51
75357;HTU21D;63946;51.986;5.930;2024-02-14T00:59:24;9.05;79.53
75357;HTU21D;63946;51.986;5.930;2024-02-14T01:01:53;9.06;79.56
75357;HTU21D;63946;51.986;5.930;2024-02-14T01:04:22;9.07;79.58
75357;HTU21D;63946;51.986;5.930;2024-02-14T01:06:59;9.09;79.59
75357;HTU21D;63946;51.986;5.930;2024-02-14T01:09:28;9.12;79.53
75357;HTU21D;63946;51.986;5.930;2024-02-14T01:11:58;9.10;79.68
75357;HTU21D;63946;51.986;5.930;2024-02-14T01:14:30;9.09;79.82
75357;HTU21D;63946;51.986;5.930;2024-02-14T01:16:59;9.11;79.82
75357;HTU21D;63946;51.986;5.930;2024-02-14T01:19:29;9.11;79.90
75357;HTU21D;63946;51.986;5.930;2024-02-14T01:21:59;9.16;79.86
75357;HTU21D;63946;51.986;5.930;2024-02-14T01:24:30;9.20;79.79
75357;HTU21D;63946;51.986;5.930;2024-02-14T01:26:58;9.20;79.85
75357;HTU21D;63946;51.986;5.930;2024-02-14T01:29:31;9.23;79.87
75357;HTU21D;63946;51.986;5.930;2024-02-14T01:32:00;9.24;79.78
75357;HTU21D;63946;51.986;5.930;2024-02-14T01:34:30;9.27;79.80
75357;HTU21D;63946;51.986;5.930;2024-02-14T01:36:59;9.27;79.78
75357;HTU21D;63946;51.986;5.930;2024-02-14T01:39:28;9.31;79.70
75357;HTU21D;63946;51.986;5.930;2024-02-14T01:41:57;9.32;79.75
75357;HTU21D;63946;51.986;5.930;2024-02-14T01:44:26;9.36;79.70
75357;HTU21D;63946;51.986;5.930;2024-02-14T01:46:55;9.38;79.70
75357;HTU21D;63946;51.986;5.930;2024-02-14T01:49:24;9.38;79.62
75357;HTU21D;63946;51.986;5.930;2024-02-14T01:52:01;9.40;79.79
75357;HTU21D;63946;51.986;5.930;2024-02-14T01:54:30;9.40;79.81
75357;HTU21D;63946;51.986;5.930;2024-02-14T01:57:00;9.42;79.88
75357;HTU21D;63946;51.986;5.930;2024-02-14T01:59:29;9.45;79.88
75357;HTU21D;63946;51.986;5.930;2024-02-14T02:01:59;9.45;79.92
75357;HTU21D;63946;51.986;5.930;2024-02-14T02:04:28;9.46;80.01
75357;HTU21D;63946;51.986;5.930;2024-02-14T02:06:56;9.48;79.95
75357;HTU21D;63946;51.986;5.930;2024-02-14T02:09:25;9.49;79.95
75357;HTU21D;63946;51.986;5.930;2024-02-14T02:11:54;9.54;79.97
75357;HTU21D;63946;51.986;5.930;2024-02-14T02:14:23;9.55;79.94
75357;HTU21D;63946;51.986;5.930;2024-02-14T02:16:52;9.59;79.91
75357;HTU21D;63946;51.986;5.930;2024-02-14T02:19:20;9.61;79.94
75357;HTU21D;63946;51.986;5.930;2024-02-14T02:21:49;9.63;80.00
75357;HTU21D;63946;51.986;5.930;2024-02-14T02:24:20;9.63;80.06
75357;HTU21D;63946;51.986;5.930;2024-02-14T02:26:49;9.63;80.15
75357;HTU21D;63946;51.986;5.930;2024-02-14T02:29:18;9.63;80.27
75357;HTU21D;63946;51.986;5.930;2024-02-14T02:31:48;9.63;80.30
75357;HTU21D;63946;51.986;5.930;2024-02-14T02:34:18;9.64;80.44
75357;HTU21D;63946;51.986;5.930;2024-02-14T02:36:46;9.66;80.47
75357;HTU21D;63946;51.986;5.930;2024-02-14T02:39:16;9.65;80.56
75357;HTU21D;63946;51.986;5.930;2024-02-14T02:41:47;9.66;80.66
75357;HTU21D;63946;51.986;5.930;2024-02-14T02:44:16;9.67;80.66
75357;HTU21D;63946;51.986;5.930;2024-02-14T02:46:47;9.67;80.66
75357;HTU21D;63946;51.986;5.930;2024-02-14T02:49:16;9.68;80.66
75357;HTU21D;63946;51.986;5.930;2024-02-14T02:51:45;9.66;80.79
75357;HTU21D;63946;51.986;5.930;2024-02-14T02:54:24;9.66;80.81
75357;HTU21D;63946;51.986;5.930;2024-02-14T02:56:53;9.68;80.91
75357;HTU21D;63946;51.986;5.930;2024-02-14T02:59:21;9.67;81.01
75357;HTU21D;63946;51.986;5.930;2024-02-14T03:01:50;9.69;81.05
75357;HTU21D;63946;51.986;5.930;2024-02-14T03:04:19;9.70;81.07
75357;HTU21D;63946;51.986;5.930;2024-02-14T03:06:48;9.71;81.06
75357;HTU21D;63946;51.986;5.930;2024-02-14T03:09:17;9.70;81.13
75357;HTU21D;63946;51.986;5.930;2024-02-14T03:11:48;9.74;81.20
75357;HTU21D;63946;51.986;5.930;2024-02-14T03:14:17;9.76;81.07
75357;HTU21D;63946;51.986;5.930;2024-02-14T03:16:45;9.79;80.98
75357;HTU21D;63946;51.986;5.930;2024-02-14T03:19:14;9.79;81.09
75357;HTU21D;63946;51.986;5.930;2024-02-14T03:21:44;9.81;81.14
75357;HTU21D;63946;51.986;5.930;2024-02-14T03:24:15;9.81;81.16
75357;HTU21D;63946;51.986;5.930;2024-02-14T03:26:43;9.83;81.21
75357;HTU21D;63946;51.986;5.930;2024-02-14T03:29:12;9.84;81.28
75357;HTU21D;63946;51.986;5.930;2024-02-14T03:31:42;9.85;81.23
75357;HTU21D;63946;51.986;5.930;2024-02-14T03:34:11;9.84;81.38
75357;HTU21D;63946;51.986;5.930;2024-02-14T03:36:40;9.86;81.39
75357;HTU21D;63946;51.986;5.930;2024-02-14T03:39:09;9.86;81.37
75357;HTU21D;63946;51.986;5.930;2024-02-14T03:41:37;9.89;81.47
75357;HTU21D;63946;51.986;5.930;2024-02-14T03:44:06;9.89;81.48
75357;HTU21D;63946;51.986;5.930;2024-02-14T03:46:35;9.91;81.55
75357;HTU21D;63946;51.986;5.930;2024-02-14T03:49:04;9.91;81.51
75357;HTU21D;63946;51.986;5.930;2024-02-14T03:51:33;9.93;81.59
75357;HTU21D;63946;51.986;5.930;2024-02-14T03:54:03;9.93;81.54
75357;HTU21D;63946;51.986;5.930;2024-02-14T03:56:32;9.93;81.44
75357;HTU21D;63946;51.986;5.930;2024-02-14T03:59:02;9.96;81.49
75357;HTU21D;63946;51.986;5.930;2024-02-14T04:01:33;9.97;81.49
75357;HTU21D;63946;51.986;5.930;2024-02-14T04:04:02;9.98;81.45
75357;HTU21D;63946;51.986;5.930;2024-02-14T04:06:31;9.98;81.46
75357;HTU21D;63946;51.986;5.930;2024-02-14T04:09:00;10.01;81.53
75357;HTU21D;63946;51.986;5.930;2024-02-14T04:11:29;10.05;81.58
75357;HTU21D;63946;51.986;5.930;2024-02-14T04:14:00;10.08;81.52
75357;HTU21D;63946;51.986;5.930;2024-02-14T04:16:29;10.09;81.56
75357;HTU21D;63946;51.986;5.930;2024-02-14T04:18:58;10.09;81.59
75357;HTU21D;63946;51.986;5.930;2024-02-14T04:21:27;10.11;81.61
75357;HTU21D;63946;51.986;5.930;2024-02-14T04:23:56;10.12;81.66
75357;HTU21D;63946;51.986;5.930;2024-02-14T04:26:25;10.12;81.68
75357;HTU21D;63946;51.986;5.930;2024-02-14T04:28:54;10.13;81.61
75357;HTU21D;63946;51.986;5.930;2024-02-14T04:31:23;10.15;81.64
75357;HTU21D;63946;51.986;5.930;2024-02-14T04:33:52;10.16;81.63
75357;HTU21D;63946;51.986;5.930;2024-02-14T04:36:23;10.19;81.62
75357;HTU21D;63946;51.986;5.930;2024-02-14T04:38:57;10.19;81.51
75357;HTU21D;63946;51.986;5.930;2024-02-14T04:41:26;10.19;81.62
75357;HTU21D;63946;51.986;5.930;2024-02-14T04:43:55;10.21;81.43
75357;HTU21D;63946;51.986;5.930;2024-02-14T04:46:24;10.24;81.43
75357;HTU21D;63946;51.986;5.930;2024-02-14T04:48:53;10.24;81.46
75357;HTU21D;63946;51.986;5.930;2024-02-14T04:51:24;10.25;81.56
75357;HTU21D;63946;51.986;5.930;2024-02-14T04:53:53;10.25;81.57
75357;HTU21D;63946;51.986;5.930;2024-02-14T04:56:26;10.26;81.55
75357;HTU21D;63946;51.986;5.930;2024-02-14T04:58:55;10.29;81.67
75357;HTU21D;63946;51.986;5.930;2024-02-14T05:01:25;10.28;81.69
75357;HTU21D;63946;51.986;5.930;2024-02-14T05:03:54;10.30;81.65
75357;HTU21D;63946;51.986;5.930;2024-02-14T05:06:22;10.30;81.75
75357;HTU21D;63946;51.986;5.930;2024-02-14T05:08:51;10.33;81.74
75357;HTU21D;63946;51.986;5.930;2024-02-14T05:11:20;10.33;81.68
75357;HTU21D;63946;51.986;5.930;2024-02-14T05:13:50;10.33;81.68
75357;HTU21D;63946;51.986;5.930;2024-02-14T05:16:21;10.35;81.80
75357;HTU21D;63946;51.986;5.930;2024-02-14T05:18:50;10.36;81.84
75357;HTU21D;63946;51.986;5.930;2024-02-14T05:21:22;10.39;81.81
75357;HTU21D;63946;51.986;5.930;2024-02-14T05:23:51;10.38;81.68
75357;HTU21D;63946;51.986;5.930;2024-02-14T05:26:20;10.39;81.78
75357;HTU21D;63946;51.986;5.930;2024-02-14T05:28:56;10.39;81.77
75357;HTU21D;63946;51.986;5.930;2024-02-14T05:31:43;10.41;81.72
75357;HTU21D;63946;51.986;5.930;2024-02-14T05:34:12;10.41;81.78
75357;HTU21D;63946;51.986;5.930;2024-02-14T05:36:41;10.42;81.79
75357;HTU21D;63946;51.986;5.930;2024-02-14T05:39:11;10.42;81.84
75357;HTU21D;63946;51.986;5.930;2024-02-14T05:41:41;10.42;81.78
75357;HTU21D;63946;51.986;5.930;2024-02-14T05:44:12;10.41;81.84
75357;HTU21D;63946;51.986;5.930;2024-02-14T05:46:41;10.40;81.97
75357;HTU21D;63946;51.986;5.930;2024-02-14T05:49:11;10.42;82.01
75357;HTU21D;63946;51.986;5.930;2024-02-14T05:51:40;10.44;81.94
75357;HTU21D;63946;51.986;5.930;2024-02-14T05:54:08;10.44;81.94
75357;HTU21D;63946;51.986;5.930;2024-02-14T05:56:37;10.46;81.98
75357;HTU21D;63946;51.986;5.930;2024-02-14T05:59:10;10.45;81.96
75357;HTU21D;63946;51.986;5.930;2024-02-14T06:01:39;10.46;81.95
75357;HTU21D;63946;51.986;5.930;2024-02-14T06:04:08;10.45;81.92
75357;HTU21D;63946;51.986;5.930;2024-02-14T06:06:41;10.48;81.94
75357;HTU21D;63946;51.986;5.930;2024-02-14T06:09:10;10.48;81.90
75357;HTU21D;63946;51.986;5.930;2024-02-14T06:11:39;10.50;81.90
75357;HTU21D;63946;51.986;5.930;2024-02-14T06:14:10;10.48;81.87
75357;HTU21D;63946;51.986;5.930;2024-02-14T06:16:39;10.48;81.81
75357;HTU21D;63946;51.986;5.930;2024-02-14T06:19:12;10.48;81.86
75357;HTU21D;63946;51.986;5.930;2024-02-14T06:21:41;10.48;81.92
75357;HTU21D;63946;51.986;5.930;2024-02-14T06:24:10;10.48;81.98
75357;HTU21D;63946;51.986;5.930;2024-02-14T06:26:39;10.50;82.00
75357;HTU21D;63946;51.986;5.930;2024-02-14T06:29:08;10.50;81.91
75357;HTU21D;63946;51.986;5.930;2024-02-14T06:31:39;10.50;82.04
75357;HTU21D;63946;51.986;5.930;2024-02-14T06:34:08;10.51;82.10
75357;HTU21D;63946;51.986;5.930;2024-02-14T06:36:38;10.49;82.07
75357;HTU21D;63946;51.986;5.930;2024-02-14T06:39:09;10.48;82.23
75357;HTU21D;63946;51.986;5.930;2024-02-14T06:41:40;10.52;82.21
75357;HTU21D;63946;51.986;5.930;2024-02-14T06:44:11;10.52;82.24
75357;HTU21D;63946;51.986;5.930;2024-02-14T06:46:39;10.51;82.22
75357;HTU21D;63946;51.986;5.930;2024-02-14T06:49:08;10.51;82.30
75357;HTU21D;63946;51.986;5.930;2024-02-14T06:51:39;10.53;82.33
75357;HTU21D;63946;51.986;5.930;2024-02-14T06:54:10;10.55;82.32
75357;HTU21D;63946;51.986;5.930;2024-02-14T06:56:39;10.56;82.38
75357;HTU21D;63946;51.986;5.930;2024-02-14T06:59:08;10.57;82.33
75357;HTU21D;63946;51.986;5.930;2024-02-14T07:01:39;10.58;82.35
75357;HTU21D;63946;51.986;5.930;2024-02-14T07:04:08;10.60;82.35
75357;HTU21D;63946;51.986;5.930;2024-02-14T07:06:39;10.59;82.26
75357;HTU21D;63946;51.986;5.930;2024-02-14T07:09:08;10.58;82.21
75357;HTU21D;63946;51.986;5.930;2024-02-14T07:11:37;10.59;82.36
75357;HTU21D;63946;51.986;5.930;2024-02-14T07:14:06;10.60;82.30
75357;HTU21D;63946;51.986;5.930;2024-02-14T07:16:35;10.59;82.33
75357;HTU21D;63946;51.986;5.930;2024-02-14T07:19:05;10.63;82.42
75357;HTU21D;63946;51.986;5.930;2024-02-14T07:21:34;10.64;82.49
75357;HTU21D;63946;51.986;5.930;2024-02-14T07:24:05;10.65;82.46
75357;HTU21D;63946;51.986;5.930;2024-02-14T07:26:34;10.66;82.45
75357;HTU21D;63946;51.986;5.930;2024-02-14T07:29:06;10.68;82.46
75357;HTU21D;63946;51.986;5.930;2024-02-14T07:31:37;10.68;82.45
75357;HTU21D;63946;51.986;5.930;2024-02-14T07:34:07;10.69;82.39
75357;HTU21D;63946;51.986;5.930;2024-02-14T07:36:43;10.69;82.41
75357;HTU21D;63946;51.986;5.930;2024-02-14T07:39:12;10.70;82.45
75357;HTU21D;63946;51.986;5.930;2024-02-14T07:41:44;10.72;82.39
75357;HTU21D;63946;51.986;5.930;2024-02-14T07:44:13;10.71;82.36
75357;HTU21D;63946;51.986;5.930;2024-02-14T07:46:48;10.73;82.36
75357;HTU21D;63946;51.986;5.930;2024-02-14T07:49:21;10.74;82.42
75357;HTU21D;63946;51.986;5.930;2024-02-14T07:51:52;10.77;82.40
75357;HTU21D;63946;51.986;5.930;2024-02-14T07:54:21;10.78;82.33
75357;HTU21D;63946;51.986;5.930;2024-02-14T07:56:50;10.78;82.40
75357;HTU21D;63946;51.986;5.930;2024-02-14T07:59:20;10.75;82.44
75357;HTU21D;63946;51.986;5.930;2024-02-14T08:01:52;10.77;82.56
75357;HTU21D;63946;51.986;5.930;2024-02-14T08:04:24;10.79;82.57
75357;HTU21D;63946;51.986;5.930;2024-02-14T08:06:53;10.80;82.55
75357;HTU21D;63946;51.986;5.930;2024-02-14T08:09:22;10.82;82.55
75357;HTU21D;63946;51.986;5.930;2024-02-14T08:11:56;10.83;82.47
75357;HTU21D;63946;51.986;5.930;2024-02-14T08:14:25;10.86;82.45
75357;HTU21D;63946;51.986;5.930;2024-02-14T08:16:57;10.89;82.45
75357;HTU21D;63946;51.986;5.930;2024-02-14T08:19:26;10.92;82.46
75357;HTU21D;63946;51.986;5.930;2024-02-14T08:21:55;10.94;82.36
75357;HTU21D;63946;51.986;5.930;2024-02-14T08:24:27;10.94;82.46
75357;HTU21D;63946;51.986;5.930;2024-02-14T08:26:56;10.95;82.46
75357;HTU21D;63946;51.986;5.930;2024-02-14T08:29:25;10.97;82.39
75357;HTU21D;63946;51.986;5.930;2024-02-14T08:31:54;10.97;82.39
75357;HTU21D;63946;51.986;5.930;2024-02-14T08:34:23;10.98;82.40
75357;HTU21D;63946;51.986;5.930;2024-02-14T08:36:52;10.97;82.47
75357;HTU21D;63946;51.986;5.930;2024-02-14T08:39:22;10.98;82.50
75357;HTU21D;63946;51.986;5.930;2024-02-14T08:41:52;11.00;82.54
75357;HTU21D;63946;51.986;5.930;2024-02-14T08:44:21;11.00;82.55
75357;HTU21D;63946;51.986;5.930;2024-02-14T08:46:52;11.00;82.66
75357;HTU21D;63946;51.986;5.930;2024-02-14T08:49:21;10.99;82.68
75357;HTU21D;63946;51.986;5.930;2024-02-14T08:51:50;11.01;82.66
75357;HTU21D;63946;51.986;5.930;2024-02-14T08:54:20;11.02;82.67
75357;HTU21D;63946;51.986;5.930;2024-02-14T08:56:54;11.03;82.70
75357;HTU21D;63946;51.986;5.930;2024-02-14T08:59:28;11.05;82.63
75357;HTU21D;63946;51.986;5.930;2024-02-14T09:01:57;11.07;82.63
75357;HTU21D;63946;51.986;5.930;2024-02-14T09:04:26;11.09;82.66
75357;HTU21D;63946;51.986;5.930;2024-02-14T09:06:55;11.08;82.60
75357;HTU21D;63946;51.986;5.930;2024-02-14T09:09:27;11.10;82.70
75357;HTU21D;63946;51.986;5.930;2024-02-14T09:11:57;11.14;82.60
75357;HTU21D;63946;51.986;5.930;2024-02-14T09:14:31;11.16;82.59
75357;HTU21D;63946;51.986;5.930;2024-02-14T09:17:02;11.18;82.51
75357;HTU21D;63946;51.986;5.930;2024-02-14T09:19:31;11.18;82.49
75357;HTU21D;63946;51.986;5.930;2024-02-14T09:22:00;11.20;82.49
75357;HTU21D;63946;51.986;5.930;2024-02-14T09:24:32;11.24;82.49
75357;HTU21D;63946;51.986;5.930;2024-02-14T09:27:01;11.27;82.58
75357;HTU21D;63946;51.986;5.930;2024-02-14T09:29:31;11.30;82.57
75357;HTU21D;63946;51.986;5.930;2024-02-14T09:32:02;11.29;82.55
75357;HTU21D;63946;51.986;5.930;2024-02-14T09:34:32;11.30;82.53
75357;HTU21D;63946;51.986;5.930;2024-02-14T09:37:03;11.30;82.52
75357;HTU21D;63946;51.986;5.930;2024-02-14T09:39:35;11.30;82.65
75357;HTU21D;63946;51.986;5.930;2024-02-14T09:42:09;11.31;82.65
75357;HTU21D;63946;51.986;5.930;2024-02-14T09:44:40;11.30;82.65
75357;HTU21D;63946;51.986;5.930;2024-02-14T09:47:15;11.31;82.62
75357;HTU21D;63946;51.986;5.930;2024-02-14T09:49:49;11.31;82.71
75357;HTU21D;63946;51.986;5.930;2024-02-14T09:52:21;11.32;82.70
75357;HTU21D;63946;51.986;5.930;2024-02-14T09:54:52;11.36;82.71
75357;HTU21D;63946;51.986;5.930;2024-02-14T09:57:22;11.38;82.65
75357;HTU21D;63946;51.986;5.930;2024-02-14T09:59:53;11.40;82.66
75357;HTU21D;63946;51.986;5.930;2024-02-14T10:02:23;11.43;82.58
75357;HTU21D;63946;51.986;5.930;2024-02-14T10:04:54;11.46;82.54
75357;HTU21D;63946;51.986;5.930;2024-02-14T10:07:26;11.44;82.55
75357;HTU21D;63946;51.986;5.930;2024-02-14T10:10:08;11.45;82.63
75357;HTU21D;63946;51.986;5.930;2024-02-14T10:12:44;11.46;82.58
75357;HTU21D;63946;51.986;5.930;2024-02-14T10:15:13;11.47;82.49
75357;HTU21D;63946;51.986;5.930;2024-02-14T10:17:45;11.52;82.51
75357;HTU21D;63946;51.986;5.930;2024-02-14T10:20:19;11.54;82.51
75357;HTU21D;63946;51.986;5.930;2024-02-14T10:22:51;11.56;82.41
75357;HTU21D;63946;51.986;5.930;2024-02-14T10:25:29;11.56;82.44
75357;HTU21D;63946;51.986;5.930;2024-02-14T10:28:06;11.58;82.42
75357;HTU21D;63946;51.986;5.930;2024-02-14T10:30:38;11.63;82.36
75357;HTU21D;63946;51.986;5.930;2024-02-14T10:33:08;11.64;82.27
75357;HTU21D;63946;51.986;5.930;2024-02-14T10:35:44;11.67;82.23
75357;HTU21D;63946;51.986;5.930;2024-02-14T10:38:14;11.66;82.26
75357;HTU21D;63946;51.986;5.930;2024-02-14T10:40:49;11.67;82.37
75357;HTU21D;63946;51.986;5.930;2024-02-14T10:43:24;11.69;82.35
75357;HTU21D;63946;51.986;5.930;2024-02-14T10:45:59;11.72;82.31
75357;HTU21D;63946;51.986;5.930;2024-02-14T10:48:34;11.74;82.34
75357;HTU21D;63946;51.986;5.930;2024-02-14T10:51:08;11.76;82.17
75357;HTU21D;63946;51.986;5.930;2024-02-14T10:53:37;11.76;82.12
75357;HTU21D;63946;51.986;5.930;2024-02-14T10:56:08;11.75;82.16
75357;HTU21D;63946;51.986;5.930;2024-02-14T10:58:38;11.78;82.17
75357;HTU21D;63946;51.986;5.930;2024-02-14T11:01:13;11.81;82.29
75357;HTU21D;63946;51.986;5.930;2024-02-14T11:03:44;11.84;82.19
75357;HTU21D;63946;51.986;5.930;2024-02-14T11:06:17;11.87;82.18
75357;HTU21D;63946;51.986;5.930;2024-02-14T11:09:01;11.89;82.22
75357;HTU21D;63946;51.986;5.930;2024-02-14T11:11:34;11.89;82.18
75357;HTU21D;63946;51.986;5.930;2024-02-14T11:14:03;11.90;82.25
75357;HTU21D;63946;51.986;5.930;2024-02-14T11:16:32;11.96;82.22
75357;HTU21D;63946;51.986;5.930;2024-02-14T11:19:07;11.98;82.26
75357;HTU21D;63946;51.986;5.930;2024-02-14T11:21:41;12.00;82.23
75357;HTU21D;63946;51.986;5.930;2024-02-14T11:24:13;12.01;82.24
75357;HTU21D;63946;51.986;5.930;2024-02-14T11:26:47;12.03;82.15
75357;HTU21D;63946;51.986;5.930;2024-02-14T11:29:20;12.03;82.26
75357;HTU21D;63946;51.986;5.930;2024-02-14T11:32:00;12.03;82.33
75357;HTU21D;63946;51.986;5.930;2024-02-14T11:34:32;12.08;82.24
75357;HTU21D;63946;51.986;5.930;2024-02-14T11:37:06;12.10;82.23
75357;HTU21D;63946;51.986;5.930;2024-02-14T11:39:37;12.12;82.26
75357;HTU21D;63946;51.986;5.930;2024-02-14T11:42:06;12.13;82.24
75357;HTU21D;63946;51.986;5.930;2024-02-14T11:44:45;12.16;82.26
75357;HTU21D;63946;51.986;5.930;2024-02-14T11:47:16;12.16;82.19
75357;HTU21D;63946;51.986;5.930;2024-02-14T11:49:47;12.17;82.20
75357;HTU21D;63946;51.986;5.930;2024-02-14T11:52:17;12.17;82.29
75357;HTU21D;63946;51.986;5.930;2024-02-14T11:54:48;12.17;82.26
75357;HTU21D;63946;51.986;5.930;2024-02-14T11:57:18;12.16;82.36
75357;HTU21D;63946;51.986;5.930;2024-02-14T11:59:49;12.14;82.36
75357;HTU21D;63946;51.986;5.930;2024-02-14T12:02:19;12.12;82.44
75357;HTU21D;63946;51.986;5.930;2024-02-14T12:04:49;12.13;82.42
75357;HTU21D;63946;51.986;5.930;2024-02-14T12:07:19;12.15;82.40
75357;HTU21D;63946;51.986;5.930;2024-02-14T12:09:48;12.15;82.46
75357;HTU21D;63946;51.986;5.930;2024-02-14T12:12:20;12.17;82.39
75357;HTU21D;63946;51.986;5.930;2024-02-14T12:14:52;12.18;82.36
75357;HTU21D;63946;51.986;5.930;2024-02-14T12:17:22;12.19;82.33
75357;HTU21D;63946;51.986;5.930;2024-02-14T12:19:51;12.20;82.33
75357;HTU21D;63946;51.986;5.930;2024-02-14T12:22:21;12.22;82.30
75357;HTU21D;63946;51.986;5.930;2024-02-14T12:24:56;12.22;82.31
75357;HTU21D;63946;51.986;5.930;2024-02-14T12:27:34;12.23;82.32
75357;HTU21D;63946;51.986;5.930;2024-02-14T12:30:05;12.23;82.31
75357;HTU21D;63946;51.986;5.930;2024-02-14T12:32:36;12.27;82.37
75357;HTU21D;63946;51.986;5.930;2024-02-14T12:35:06;12.28;82.39
75357;HTU21D;63946;51.986;5.930;2024-02-14T12:37:36;12.29;82.40
75357;HTU21D;63946;51.986;5.930;2024-02-14T12:40:06;12.29;82.48
75357;HTU21D;63946;51.986;5.930;2024-02-14T12:42:35;12.32;82.43
75357;HTU21D;63946;51.986;5.930;2024-02-14T12:45:04;12.36;82.41
75357;HTU21D;63946;51.986;5.930;2024-02-14T12:47:39;12.37;82.42
75357;HTU21D;63946;51.986;5.930;2024-02-14T12:50:09;12.36;82.41
75357;HTU21D;63946;51.986;5.930;2024-02-14T12:52:38;12.36;82.50
75357;HTU21D;63946;51.986;5.930;2024-02-14T12:55:07;12.36;82.54
75357;HTU21D;63946;51.986;5.930;2024-02-14T12:57:37;12.35;82.55
75357;HTU21D;63946;51.986;5.930;2024-02-14T13:00:09;12.35;82.62
75357;HTU21D;63946;51.986;5.930;2024-02-14T13:02:38;12.33;82.65
75357;HTU21D;63946;51.986;5.930;2024-02-14T13:05:08;12.32;82.55
75357;HTU21D;63946;51.986;5.930;2024-02-14T13:07:37;12.32;82.66
75357;HTU21D;63946;51.986;5.930;2024-02-14T13:10:09;12.33;82.67
75357;HTU21D;63946;51.986;5.930;2024-02-14T13:12:41;12.34;82.69
75357;HTU21D;63946;51.986;5.930;2024-02-14T13:15:11;12.34;82.68
75357;HTU21D;63946;51.986;5.930;2024-02-14T13:17:40;12.36;82.64
75357;HTU21D;63946;51.986;5.930;2024-02-14T13:20:11;12.36;82.68
75357;HTU21D;63946;51.986;5.930;2024-02-14T13:22:41;12.38;82.65
75357;HTU21D;63946;51.986;5.930;2024-02-14T13:25:10;12.37;82.65
75357;HTU21D;63946;51.986;5.930;2024-02-14T13:27:44;12.34;82.64
75357;HTU21D;63946;51.986;5.930;2024-02-14T13:30:13;12.33;82.70
75357;HTU21D;63946;51.986;5.930;2024-02-14T13:32:45;12.31;82.76
75357;HTU21D;63946;51.986;5.930;2024-02-14T13:35:14;12.30;82.87
75357;HTU21D;63946;51.986;5.930;2024-02-14T13:37:51;12.31;82.92
75357;HTU21D;63946;51.986;5.930;2024-02-14T13:40:33;12.32;82.94
75357;HTU21D;63946;51.986;5.930;2024-02-14T13:43:02;12.31;82.89
75357;HTU21D;63946;51.986;5.930;2024-02-14T13:45:42;12.33;82.97
75357;HTU21D;63946;51.986;5.930;2024-02-14T13:48:13;12.33;82.90
75357;HTU21D;63946;51.986;5.930;2024-02-14T13:50:51;12.33;82.94
75357;HTU21D;63946;51.986;5.930;2024-02-14T13:53:24;12.31;82.89
75357;HTU21D;63946;51.986;5.930;2024-02-14T13:55:53;12.30;83.04
75357;HTU21D;63946;51.986;5.930;2024-02-14T13:58:22;12.28;82.99
75357;HTU21D;63946;51.986;5.930;2024-02-14T14:00:53;12.29;83.16
75357;HTU21D;63946;51.986;5.930;2024-02-14T14:03:25;12.32;83.10
75357;HTU21D;63946;51.986;5.930;2024-02-14T14:05:58;12.31;83.19
75357;HTU21D;63946;51.986;5.930;2024-02-14T14:08:28;12.32;83.20
75357;HTU21D;63946;51.986;5.930;2024-02-14T14:10:57;12.33;83.26
75357;HTU21D;63946;51.986;5.930;2024-02-14T14:13:29;12.34;83.26
75357;HTU21D;63946;51.986;5.930;2024-02-14T14:16:00;12.34;83.19
75357;HTU21D;63946;51.986;5.930;2024-02-14T14:18:35;12.34;83.24
75357;HTU21D;63946;51.986;5.930;2024-02-14T14:21:05;12.34;83.20
75357;HTU21D;63946;51.986;5.930;2024-02-14T14:23:34;12.35;83.18
75357;HTU21D;63946;51.986;5.930;2024-02-14T14:26:04;12.34;83.23
75357;HTU21D;63946;51.986;5.930;2024-02-14T14:28:34;12.34;83.30
75357;HTU21D;63946;51.986;5.930;2024-02-14T14:31:03;12.33;83.39
75357;HTU21D;63946;51.986;5.930;2024-02-14T14:33:32;12.35;83.42
75357;HTU21D;63946;51.986;5.930;2024-02-14T14:36:01;12.35;83.40
75357;HTU21D;63946;51.986;5.930;2024-02-14T14:38:33;12.36;83.46
75357;HTU21D;63946;51.986;5.930;2024-02-14T14:41:02;12.37;83.48
75357;HTU21D;63946;51.986;5.930;2024-02-14T14:43:32;12.40;83.45
75357;HTU21D;63946;51.986;5.930;2024-02-14T14:46:05;12.41;83.42
75357;HTU21D;63946;51.986;5.930;2024-02-14T14:48:34;12.42;83.48
75357;HTU21D;63946;51.986;5.930;2024-02-14T14:51:15;12.44;83.45
75357;HTU21D;63946;51.986;5.930;2024-02-14T14:53:44;12.44;83.43
75357;HTU21D;63946;51.986;5.930;2024-02-14T14:56:16;12.45;83.37
75357;HTU21D;63946;51.986;5.930;2024-02-14T14:58:45;12.46;83.37
75357;HTU21D;63946;51.986;5.930;2024-02-14T15:01:17;12.44;83.49
75357;HTU21D;63946;51.986;5.930;2024-02-14T15:03:48;12.46;83.41
75357;HTU21D;63946;51.986;5.930;2024-02-14T15:06:19;12.47;83.53
75357;HTU21D;63946;51.986;5.930;2024-02-14T15:08:48;12.48;83.41
75357;HTU21D;63946;51.986;5.930;2024-02-14T15:11:17;12.47;83.56
75357;HTU21D;63946;51.986;5.930;2024-02-14T15:13:47;12.47;83.65
75357;HTU21D;63946;51.986;5.930;2024-02-14T15:16:17;12.50;83.62
75357;HTU21D;63946;51.986;5.930;2024-02-14T15:18:46;12.49;83.54
75357;HTU21D;63946;51.986;5.930;2024-02-14T15:21:16;12.53;83.52
75357;HTU21D;63946;51.986;5.930;2024-02-14T15:23:48;12.55;83.52
75357;HTU21D;63946;51.986;5.930;2024-02-14T15:26:17;12.56;83.55
75357;HTU21D;63946;51.986;5.930;2024-02-14T15:28:50;12.58;83.44
75357;HTU21D;63946;51.986;5.930;2024-02-14T15:31:40;12.58;83.50
75357;HTU21D;63946;51.986;5.930;2024-02-14T15:34:21;12.58;83.53
75357;HTU21D;63946;51.986;5.930;2024-02-14T15:36:50;12.60;83.46
75357;HTU21D;63946;51.986;5.930;2024-02-14T15:39:22;12.61;83.45
75357;HTU21D;63946;51.986;5.930;2024-02-14T15:41:54;12.62;83.41